sensor_id;sensor_type;location;lat;lon;timestamp;temperature;humidity
17452;DHT22;8843;48.838;9.324;2022-10-31T00:01:34;16.40;86.90
17452;DHT22;8843;48.838;9.324;2022-10-31T00:04:01;16.40;86.90
17452;DHT22;8843;48.838;9.324;2022-10-31T00:06:29;16.40;86.80
17452;DHT22;8843;48.838;9.324;2022-10-31T00:08:57;16.40;86.90
17452;DHT22;8843;48.838;9.324;2022-10-31T00:11:25;16.40;86.90
17452;DHT22;8843;48.838;9.324;2022-10-31T00:13:52;16.40;86.80
17452;DHT22;8843;48.838;9.324;2022-10-31T00:16:23;16.40;86.90
17452;DHT22;8843;48.838;9.324;2022-10-31T00:18:51;16.40;86.80
17452;DHT22;8843;48.838;9.324;2022-10-31T00:21:19;16.40;86.80
17452;DHT22;8843;48.838;9.324;2022-10-31T00:23:46;16.40;86.80
17452;DHT22;8843;48.838;9.324;2022-10-31T00:26:14;16.40;86.80
17452;DHT22;8843;48.838;9.324;2022-10-31T00:28:41;16.40;86.70
17452;DHT22;8843;48.838;9.324;2022-10-31T00:31:09;16.40;86.70
17452;DHT22;8843;48.838;9.324;2022-10-31T00:33:39;16.40;87.10
17452;DHT22;8843;48.838;9.324;2022-10-31T00:36:07;16.40;86.70
17452;DHT22;8843;48.838;9.324;2022-10-31T00:38:34;16.40;86.70
17452;DHT22;8843;48.838;9.324;2022-10-31T00:41:01;16.40;86.70
17452;DHT22;8843;48.838;9.324;2022-10-31T00:43:28;16.40;86.70
17452;DHT22;8843;48.838;9.324;2022-10-31T00:45:55;16.40;86.70
17452;DHT22;8843;48.838;9.324;2022-10-31T00:48:22;16.40;86.60
17452;DHT22;8843;48.838;9.324;2022-10-31T00:50:50;16.40;86.70
17452;DHT22;8843;48.838;9.324;2022-10-31T00:53:17;16.40;86.60
17452;DHT22;8843;48.838;9.324;2022-10-31T00:55:44;16.40;86.50
17452;DHT22;8843;48.838;9.324;2022-10-31T00:58:11;16.40;86.60
17452;DHT22;8843;48.838;9.324;2022-10-31T01:00:38;16.30;86.50
17452;DHT22;8843;48.838;9.324;2022-10-31T01:03:05;16.40;86.60
17452;DHT22;8843;48.838;9.324;2022-10-31T01:05:32;16.30;86.50
17452;DHT22;8843;48.838;9.324;2022-10-31T01:08:00;16.30;86.40
17452;DHT22;8843;48.838;9.324;2022-10-31T01:10:27;16.30;86.40
17452;DHT22;8843;48.838;9.324;2022-10-31T01:12:54;16.30;86.40
17452;DHT22;8843;48.838;9.324;2022-10-31T01:15:22;16.30;86.50
17452;DHT22;8843;48.838;9.324;2022-10-31T01:17:49;16.30;86.40
17452;DHT22;8843;48.838;9.324;2022-10-31T01:20:17;16.30;86.40
17452;DHT22;8843;48.838;9.324;2022-10-31T01:22:44;16.30;86.40
17452;DHT22;8843;48.838;9.324;2022-10-31T01:25:12;16.30;86.40
17452;DHT22;8843;48.838;9.324;2022-10-31T01:27:39;16.30;86.30
17452;DHT22;8843;48.838;9.324;2022-10-31T01:30:07;16.30;86.40
17452;DHT22;8843;48.838;9.324;2022-10-31T01:32:34;16.30;86.30
17452;DHT22;8843;48.838;9.324;2022-10-31T01:35:00;16.30;86.30
17452;DHT22;8843;48.838;9.324;2022-10-31T01:37:27;16.30;86.30
17452;DHT22;8843;48.838;9.324;2022-10-31T01:39:54;16.30;86.40
17452;DHT22;8843;48.838;9.324;2022-10-31T01:42:23;16.30;86.30
17452;DHT22;8843;48.838;9.324;2022-10-31T01:44:53;16.30;86.40
17452;DHT22;8843;48.838;9.324;2022-10-31T01:47:32;16.20;86.30
17452;DHT22;8843;48.838;9.324;2022-10-31T01:50:03;16.20;86.30
17452;DHT22;8843;48.838;9.324;2022-10-31T01:52:35;16.20;86.20
17452;DHT22;8843;48.838;9.324;2022-10-31T01:55:06;16.20;86.20
17452;DHT22;8843;48.838;9.324;2022-10-31T01:57:37;16.20;86.20
17452;DHT22;8843;48.838;9.324;2022-10-31T02:00:07;16.20;86.20
17452;DHT22;8843;48.838;9.324;2022-10-31T02:02:35;16.20;86.10
17452;DHT22;8843;48.838;9.324;2022-10-31T02:05:05;16.20;86.10
17452;DHT22;8843;48.838;9.324;2022-10-31T02:07:36;16.20;86.10
17452;DHT22;8843;48.838;9.324;2022-10-31T02:10:05;16.20;86.10
17452;DHT22;8843;48.838;9.324;2022-10-31T02:12:32;16.20;86.20
17452;DHT22;8843;48.838;9.324;2022-10-31T02:15:03;16.20;86.10
17452;DHT22;8843;48.838;9.324;2022-10-31T02:17:31;16.20;86.10
17452;DHT22;8843;48.838;9.324;2022-10-31T02:20:09;16.20;86.10
17452;DHT22;8843;48.838;9.324;2022-10-31T02:22:42;16.20;86.20
17452;DHT22;8843;48.838;9.324;2022-10-31T02:25:27;16.20;86.10
17452;DHT22;8843;48.838;9.324;2022-10-31T02:28:24;16.20;86.10
17452;DHT22;8843;48.838;9.324;2022-10-31T02:31:01;16.20;86.10
17452;DHT22;8843;48.838;9.324;2022-10-31T02:33:34;16.20;86.10
17452;DHT22;8843;48.838;9.324;2022-10-31T02:36:11;16.10;86.10
17452;DHT22;8843;48.838;9.324;2022-10-31T02:38:49;16.10;86.00
17452;DHT22;8843;48.838;9.324;2022-10-31T02:41:22;16.10;86.00
17452;DHT22;8843;48.838;9.324;2022-10-31T02:43:58;16.10;85.90
17452;DHT22;8843;48.838;9.324;2022-10-31T02:46:34;16.10;85.90
17452;DHT22;8843;48.838;9.324;2022-10-31T02:49:05;16.10;86.00
17452;DHT22;8843;48.838;9.324;2022-10-31T02:51:34;16.10;86.00
17452;DHT22;8843;48.838;9.324;2022-10-31T02:54:02;16.10;86.00
17452;DHT22;8843;48.838;9.324;2022-10-31T02:56:29;16.10;86.00
17452;DHT22;8843;48.838;9.324;2022-10-31T02:58:57;16.10;86.00
17452;DHT22;8843;48.838;9.324;2022-10-31T03:07:14;16.10;86.00
17452;DHT22;8843;48.838;9.324;2022-10-31T03:09:46;16.10;86.00
17452;DHT22;8843;48.838;9.324;2022-10-31T03:12:25;16.10;86.00
17452;DHT22;8843;48.838;9.324;2022-10-31T03:14:56;16.10;85.90
17452;DHT22;8843;48.838;9.324;2022-10-31T03:17:30;16.10;86.00
17452;DHT22;8843;48.838;9.324;2022-10-31T03:20:04;16.00;85.90
17452;DHT22;8843;48.838;9.324;2022-10-31T03:22:33;16.00;85.90
17452;DHT22;8843;48.838;9.324;2022-10-31T03:25:03;16.00;85.80
17452;DHT22;8843;48.838;9.324;2022-10-31T03:27:33;16.00;85.90
17452;DHT22;8843;48.838;9.324;2022-10-31T03:30:03;16.00;85.80
17452;DHT22;8843;48.838;9.324;2022-10-31T03:32:35;16.00;85.90
17452;DHT22;8843;48.838;9.324;2022-10-31T03:35:07;16.00;85.80
17452;DHT22;8843;48.838;9.324;2022-10-31T03:37:36;16.00;85.80
17452;DHT22;8843;48.838;9.324;2022-10-31T03:40:06;16.00;85.80
17452;DHT22;8843;48.838;9.324;2022-10-31T03:42:38;16.00;85.70
17452;DHT22;8843;48.838;9.324;2022-10-31T03:45:08;16.00;85.80
17452;DHT22;8843;48.838;9.324;2022-10-31T03:47:37;16.00;85.70
17452;DHT22;8843;48.838;9.324;2022-10-31T03:50:08;15.90;85.60
17452;DHT22;8843;48.838;9.324;2022-10-31T03:52:39;16.00;85.80
17452;DHT22;8843;48.838;9.324;2022-10-31T03:55:09;16.00;85.70
17452;DHT22;8843;48.838;9.324;2022-10-31T03:57:43;16.00;85.70
17452;DHT22;8843;48.838;9.324;2022-10-31T04:00:13;16.00;85.70
17452;DHT22;8843;48.838;9.324;2022-10-31T04:02:43;16.00;85.80
17452;DHT22;8843;48.838;9.324;2022-10-31T04:05:15;16.00;85.70
17452;DHT22;8843;48.838;9.324;2022-10-31T04:07:46;16.00;86.50
17452;DHT22;8843;48.838;9.324;2022-10-31T04:10:15;15.90;85.70
17452;DHT22;8843;48.838;9.324;2022-10-31T04:12:43;15.90;86.30
17452;DHT22;8843;48.838;9.324;2022-10-31T04:15:12;15.90;85.70
17452;DHT22;8843;48.838;9.324;2022-10-31T04:17:42;15.90;85.60
17452;DHT22;8843;48.838;9.324;2022-10-31T04:20:15;15.90;85.70
17452;DHT22;8843;48.838;9.324;2022-10-31T04:22:42;15.90;85.60
17452;DHT22;8843;48.838;9.324;2022-10-31T04:25:09;15.90;85.60
17452;DHT22;8843;48.838;9.324;2022-10-31T04:27:36;15.90;85.60
17452;DHT22;8843;48.838;9.324;2022-10-31T04:30:03;15.90;86.40
17452;DHT22;8843;48.838;9.324;2022-10-31T04:32:30;15.90;85.60
17452;DHT22;8843;48.838;9.324;2022-10-31T04:34:57;15.90;85.60
17452;DHT22;8843;48.838;9.324;2022-10-31T04:37:25;15.90;86.30
17452;DHT22;8843;48.838;9.324;2022-10-31T04:39:52;15.90;85.70
17452;DHT22;8843;48.838;9.324;2022-10-31T04:42:19;15.90;85.60
17452;DHT22;8843;48.838;9.324;2022-10-31T04:44:46;15.90;85.60
17452;DHT22;8843;48.838;9.324;2022-10-31T04:47:13;15.90;85.60
17452;DHT22;8843;48.838;9.324;2022-10-31T04:49:40;15.80;85.50
17452;DHT22;8843;48.838;9.324;2022-10-31T04:52:06;15.80;85.40
17452;DHT22;8843;48.838;9.324;2022-10-31T04:54:35;15.80;85.40
17452;DHT22;8843;48.838;9.324;2022-10-31T04:57:02;15.80;85.40
17452;DHT22;8843;48.838;9.324;2022-10-31T04:59:29;15.80;85.50
17452;DHT22;8843;48.838;9.324;2022-10-31T05:01:55;15.80;85.50
17452;DHT22;8843;48.838;9.324;2022-10-31T05:04:22;15.80;85.40
17452;DHT22;8843;48.838;9.324;2022-10-31T05:06:49;15.80;85.40
17452;DHT22;8843;48.838;9.324;2022-10-31T05:09:16;15.80;85.40
17452;DHT22;8843;48.838;9.324;2022-10-31T05:11:44;15.80;85.40
17452;DHT22;8843;48.838;9.324;2022-10-31T05:14:11;15.80;85.40
17452;DHT22;8843;48.838;9.324;2022-10-31T05:16:38;15.80;85.40
17452;DHT22;8843;48.838;9.324;2022-10-31T05:19:05;15.80;85.40
17452;DHT22;8843;48.838;9.324;2022-10-31T05:21:32;15.80;85.40
17452;DHT22;8843;48.838;9.324;2022-10-31T05:23:59;15.70;85.20
17452;DHT22;8843;48.838;9.324;2022-10-31T05:26:25;15.70;85.30
17452;DHT22;8843;48.838;9.324;2022-10-31T05:28:54;15.70;85.30
17452;DHT22;8843;48.838;9.324;2022-10-31T05:31:20;15.70;85.30
17452;DHT22;8843;48.838;9.324;2022-10-31T05:33:47;15.70;85.30
17452;DHT22;8843;48.838;9.324;2022-10-31T05:36:14;15.70;85.30
17452;DHT22;8843;48.838;9.324;2022-10-31T05:38:41;15.70;85.30
17452;DHT22;8843;48.838;9.324;2022-10-31T05:41:08;15.70;85.30
17452;DHT22;8843;48.838;9.324;2022-10-31T05:43:35;15.70;85.20
17452;DHT22;8843;48.838;9.324;2022-10-31T05:46:04;15.70;85.30
17452;DHT22;8843;48.838;9.324;2022-10-31T05:48:31;15.70;84.90
17452;DHT22;8843;48.838;9.324;2022-10-31T05:50:57;15.70;85.20
17452;DHT22;8843;48.838;9.324;2022-10-31T05:53:24;15.70;85.30
17452;DHT22;8843;48.838;9.324;2022-10-31T05:55:51;15.70;85.20
17452;DHT22;8843;48.838;9.324;2022-10-31T05:58:18;15.70;85.20
17452;DHT22;8843;48.838;9.324;2022-10-31T06:00:45;15.70;85.20
17452;DHT22;8843;48.838;9.324;2022-10-31T06:03:13;15.70;85.20
17452;DHT22;8843;48.838;9.324;2022-10-31T06:05:40;15.70;85.20
17452;DHT22;8843;48.838;9.324;2022-10-31T06:08:07;15.70;85.20
17452;DHT22;8843;48.838;9.324;2022-10-31T06:10:34;15.70;85.20
17452;DHT22;8843;48.838;9.324;2022-10-31T06:13:01;15.70;85.20
17452;DHT22;8843;48.838;9.324;2022-10-31T06:15:28;15.70;85.20
17452;DHT22;8843;48.838;9.324;2022-10-31T06:17:59;15.70;85.10
17452;DHT22;8843;48.838;9.324;2022-10-31T06:20:27;15.60;84.90
17452;DHT22;8843;48.838;9.324;2022-10-31T06:22:54;15.60;85.10
17452;DHT22;8843;48.838;9.324;2022-10-31T06:25:21;15.60;85.00
17452;DHT22;8843;48.838;9.324;2022-10-31T06:27:47;15.60;85.10
17452;DHT22;8843;48.838;9.324;2022-10-31T06:30:15;15.60;85.70
17452;DHT22;8843;48.838;9.324;2022-10-31T06:32:42;15.60;85.00
17452;DHT22;8843;48.838;9.324;2022-10-31T06:35:08;15.60;85.10
17452;DHT22;8843;48.838;9.324;2022-10-31T06:37:37;15.60;85.00
17452;DHT22;8843;48.838;9.324;2022-10-31T06:40:05;15.60;85.00
17452;DHT22;8843;48.838;9.324;2022-10-31T06:42:32;15.60;85.80
17452;DHT22;8843;48.838;9.324;2022-10-31T06:44:59;15.60;85.10
17452;DHT22;8843;48.838;9.324;2022-10-31T06:47:25;15.60;85.10
17452;DHT22;8843;48.838;9.324;2022-10-31T06:49:52;15.60;84.90
17452;DHT22;8843;48.838;9.324;2022-10-31T06:52:19;15.60;85.70
17452;DHT22;8843;48.838;9.324;2022-10-31T06:54:47;15.60;85.00
17452;DHT22;8843;48.838;9.324;2022-10-31T06:57:14;15.60;85.10
17452;DHT22;8843;48.838;9.324;2022-10-31T06:59:41;15.60;85.00
17452;DHT22;8843;48.838;9.324;2022-10-31T07:02:09;15.60;85.10
17452;DHT22;8843;48.838;9.324;2022-10-31T07:04:36;15.60;85.10
17452;DHT22;8843;48.838;9.324;2022-10-31T07:07:03;15.60;85.00
17452;DHT22;8843;48.838;9.324;2022-10-31T07:09:30;15.50;84.90
17452;DHT22;8843;48.838;9.324;2022-10-31T07:11:58;15.50;85.70
17452;DHT22;8843;48.838;9.324;2022-10-31T07:14:25;15.50;85.00
17452;DHT22;8843;48.838;9.324;2022-10-31T07:16:52;15.50;85.00
17452;DHT22;8843;48.838;9.324;2022-10-31T07:19:19;15.50;84.90
17452;DHT22;8843;48.838;9.324;2022-10-31T07:21:46;15.50;85.00
17452;DHT22;8843;48.838;9.324;2022-10-31T07:24:12;15.50;85.00
17452;DHT22;8843;48.838;9.324;2022-10-31T07:26:39;15.50;85.00
17452;DHT22;8843;48.838;9.324;2022-10-31T07:29:09;15.50;85.10
17452;DHT22;8843;48.838;9.324;2022-10-31T07:31:36;15.50;85.00
17452;DHT22;8843;48.838;9.324;2022-10-31T07:34:03;15.50;85.10
17452;DHT22;8843;48.838;9.324;2022-10-31T07:36:29;15.50;85.10
17452;DHT22;8843;48.838;9.324;2022-10-31T07:38:56;15.50;85.10
17452;DHT22;8843;48.838;9.324;2022-10-31T07:41:24;15.50;85.20
17452;DHT22;8843;48.838;9.324;2022-10-31T07:43:51;15.50;85.20
17452;DHT22;8843;48.838;9.324;2022-10-31T07:46:21;15.50;85.20
17452;DHT22;8843;48.838;9.324;2022-10-31T07:48:48;15.50;85.20
17452;DHT22;8843;48.838;9.324;2022-10-31T07:51:14;15.50;85.20
17452;DHT22;8843;48.838;9.324;2022-10-31T07:53:41;15.50;85.20
17452;DHT22;8843;48.838;9.324;2022-10-31T07:56:08;15.50;86.00
17452;DHT22;8843;48.838;9.324;2022-10-31T07:58:35;15.50;85.20
17452;DHT22;8843;48.838;9.324;2022-10-31T08:01:02;15.50;85.30
17452;DHT22;8843;48.838;9.324;2022-10-31T08:03:30;15.50;85.40
17452;DHT22;8843;48.838;9.324;2022-10-31T08:05:57;15.50;85.40
17452;DHT22;8843;48.838;9.324;2022-10-31T08:08:24;15.50;85.40
17452;DHT22;8843;48.838;9.324;2022-10-31T08:10:53;15.50;85.40
17452;DHT22;8843;48.838;9.324;2022-10-31T08:13:20;15.50;85.40
17452;DHT22;8843;48.838;9.324;2022-10-31T08:15:47;15.50;85.40
17452;DHT22;8843;48.838;9.324;2022-10-31T08:18:16;15.50;85.50
17452;DHT22;8843;48.838;9.324;2022-10-31T08:20:44;15.50;85.50
17452;DHT22;8843;48.838;9.324;2022-10-31T08:23:12;15.50;85.60
17452;DHT22;8843;48.838;9.324;2022-10-31T08:25:39;15.50;85.60
17452;DHT22;8843;48.838;9.324;2022-10-31T08:28:09;15.50;85.60
17452;DHT22;8843;48.838;9.324;2022-10-31T08:30:37;15.50;85.70
17452;DHT22;8843;48.838;9.324;2022-10-31T08:33:06;15.50;85.70
17452;DHT22;8843;48.838;9.324;2022-10-31T08:35:33;15.50;85.80
17452;DHT22;8843;48.838;9.324;2022-10-31T08:38:02;15.50;85.80
17452;DHT22;8843;48.838;9.324;2022-10-31T08:40:31;15.50;85.80
17452;DHT22;8843;48.838;9.324;2022-10-31T08:42:59;15.50;85.90
17452;DHT22;8843;48.838;9.324;2022-10-31T08:45:27;15.50;86.00
17452;DHT22;8843;48.838;9.324;2022-10-31T08:47:57;15.50;86.00
17452;DHT22;8843;48.838;9.324;2022-10-31T08:50:24;15.50;86.00
17452;DHT22;8843;48.838;9.324;2022-10-31T08:52:51;15.50;86.10
17452;DHT22;8843;48.838;9.324;2022-10-31T08:55:20;15.50;86.10
17452;DHT22;8843;48.838;9.324;2022-10-31T08:57:46;15.40;86.10
17452;DHT22;8843;48.838;9.324;2022-10-31T09:00:14;15.40;86.10
17452;DHT22;8843;48.838;9.324;2022-10-31T09:02:40;15.40;86.10
17452;DHT22;8843;48.838;9.324;2022-10-31T09:05:08;15.40;86.20
17452;DHT22;8843;48.838;9.324;2022-10-31T09:07:35;15.40;86.20
17452;DHT22;8843;48.838;9.324;2022-10-31T09:10:02;15.40;86.20
17452;DHT22;8843;48.838;9.324;2022-10-31T09:12:31;15.40;86.30
17452;DHT22;8843;48.838;9.324;2022-10-31T09:14:57;15.40;86.30
17452;DHT22;8843;48.838;9.324;2022-10-31T09:17:26;15.40;86.30
17452;DHT22;8843;48.838;9.324;2022-10-31T09:19:54;15.40;86.30
17452;DHT22;8843;48.838;9.324;2022-10-31T09:22:21;15.40;86.40
17452;DHT22;8843;48.838;9.324;2022-10-31T09:24:48;15.40;86.50
17452;DHT22;8843;48.838;9.324;2022-10-31T09:27:15;15.40;86.50
17452;DHT22;8843;48.838;9.324;2022-10-31T09:29:43;15.40;86.50
17452;DHT22;8843;48.838;9.324;2022-10-31T09:32:10;15.40;86.50
17452;DHT22;8843;48.838;9.324;2022-10-31T09:34:37;15.40;86.60
17452;DHT22;8843;48.838;9.324;2022-10-31T09:37:03;15.40;87.30
17452;DHT22;8843;48.838;9.324;2022-10-31T09:39:30;15.40;86.60
17452;DHT22;8843;48.838;9.324;2022-10-31T09:42:15;15.40;86.70
17452;DHT22;8843;48.838;9.324;2022-10-31T09:44:55;15.40;86.80
17452;DHT22;8843;48.838;9.324;2022-10-31T09:47:32;15.40;86.80
17452;DHT22;8843;48.838;9.324;2022-10-31T09:50:13;15.40;86.90
17452;DHT22;8843;48.838;9.324;2022-10-31T09:52:45;15.40;86.90
17452;DHT22;8843;48.838;9.324;2022-10-31T09:55:17;15.40;86.90
17452;DHT22;8843;48.838;9.324;2022-10-31T09:57:45;15.40;86.90
17452;DHT22;8843;48.838;9.324;2022-10-31T10:00:19;15.40;86.90
17452;DHT22;8843;48.838;9.324;2022-10-31T10:02:49;15.40;86.90
17452;DHT22;8843;48.838;9.324;2022-10-31T10:05:21;15.40;87.00
17452;DHT22;8843;48.838;9.324;2022-10-31T10:07:55;15.40;87.00
17452;DHT22;8843;48.838;9.324;2022-10-31T10:10:36;15.40;87.00
17452;DHT22;8843;48.838;9.324;2022-10-31T10:13:17;15.40;87.10
17452;DHT22;8843;48.838;9.324;2022-10-31T10:16:05;15.40;87.10
17452;DHT22;8843;48.838;9.324;2022-10-31T10:18:42;15.40;87.00
17452;DHT22;8843;48.838;9.324;2022-10-31T10:21:27;15.40;88.00
17452;DHT22;8843;48.838;9.324;2022-10-31T10:24:05;15.40;88.10
17452;DHT22;8843;48.838;9.324;2022-10-31T10:26:37;15.40;88.70
17452;DHT22;8843;48.838;9.324;2022-10-31T10:29:21;15.40;88.70
17452;DHT22;8843;48.838;9.324;2022-10-31T10:31:53;15.40;88.30
17452;DHT22;8843;48.838;9.324;2022-10-31T10:34:23;15.50;89.10
17452;DHT22;8843;48.838;9.324;2022-10-31T10:36:55;15.50;89.70
17452;DHT22;8843;48.838;9.324;2022-10-31T10:39:25;15.50;89.50
17452;DHT22;8843;48.838;9.324;2022-10-31T10:41:55;15.50;89.50
17452;DHT22;8843;48.838;9.324;2022-10-31T10:44:45;15.50;88.10
17452;DHT22;8843;48.838;9.324;2022-10-31T10:47:36;15.60;90.10
17452;DHT22;8843;48.838;9.324;2022-10-31T10:50:12;15.60;88.70
17452;DHT22;8843;48.838;9.324;2022-10-31T10:52:48;15.70;90.30
17452;DHT22;8843;48.838;9.324;2022-10-31T10:55:25;15.70;88.40
17452;DHT22;8843;48.838;9.324;2022-10-31T10:57:56;15.70;89.10
17452;DHT22;8843;48.838;9.324;2022-10-31T11:00:25;15.70;89.10
17452;DHT22;8843;48.838;9.324;2022-10-31T11:02:55;15.70;90.00
17452;DHT22;8843;48.838;9.324;2022-10-31T11:05:26;15.80;89.20
17452;DHT22;8843;48.838;9.324;2022-10-31T11:07:54;15.80;89.40
17452;DHT22;8843;48.838;9.324;2022-10-31T11:10:22;15.80;89.40
17452;DHT22;8843;48.838;9.324;2022-10-31T11:13:06;15.80;89.20
17452;DHT22;8843;48.838;9.324;2022-10-31T11:15:51;15.80;89.00
17452;DHT22;8843;48.838;9.324;2022-10-31T11:18:23;15.80;88.60
17452;DHT22;8843;48.838;9.324;2022-10-31T11:20:53;15.80;88.90
17452;DHT22;8843;48.838;9.324;2022-10-31T11:23:21;15.80;88.70
17452;DHT22;8843;48.838;9.324;2022-10-31T11:25:51;15.80;88.50
17452;DHT22;8843;48.838;9.324;2022-10-31T11:28:18;15.80;88.40
17452;DHT22;8843;48.838;9.324;2022-10-31T11:30:47;15.80;89.00
17452;DHT22;8843;48.838;9.324;2022-10-31T11:33:18;15.90;89.90
17452;DHT22;8843;48.838;9.324;2022-10-31T11:35:48;15.90;90.20
17452;DHT22;8843;48.838;9.324;2022-10-31T11:38:18;16.00;90.40
17452;DHT22;8843;48.838;9.324;2022-10-31T11:40:54;16.10;90.40
17452;DHT22;8843;48.838;9.324;2022-10-31T11:43:22;16.10;90.40
17452;DHT22;8843;48.838;9.324;2022-10-31T11:45:49;16.20;90.40
17452;DHT22;8843;48.838;9.324;2022-10-31T11:48:19;16.20;90.10
17452;DHT22;8843;48.838;9.324;2022-10-31T11:50:51;16.20;90.10
17452;DHT22;8843;48.838;9.324;2022-10-31T11:53:20;16.20;90.20
17452;DHT22;8843;48.838;9.324;2022-10-31T11:56:04;16.30;90.10
17452;DHT22;8843;48.838;9.324;2022-10-31T11:58:31;16.30;90.10
17452;DHT22;8843;48.838;9.324;2022-10-31T12:00:58;16.30;89.40
17452;DHT22;8843;48.838;9.324;2022-10-31T12:03:37;16.40;90.00
17452;DHT22;8843;48.838;9.324;2022-10-31T12:06:09;16.50;90.00
17452;DHT22;8843;48.838;9.324;2022-10-31T12:08:40;16.50;90.00
17452;DHT22;8843;48.838;9.324;2022-10-31T12:11:15;16.60;90.20
17452;DHT22;8843;48.838;9.324;2022-10-31T12:13:56;16.60;89.90
17452;DHT22;8843;48.838;9.324;2022-10-31T12:16:30;16.60;89.30
17452;DHT22;8843;48.838;9.324;2022-10-31T12:19:03;16.60;89.20
17452;DHT22;8843;48.838;9.324;2022-10-31T12:21:48;16.60;89.10
17452;DHT22;8843;48.838;9.324;2022-10-31T12:24:38;16.70;88.60
17452;DHT22;8843;48.838;9.324;2022-10-31T12:27:15;16.60;88.30
17452;DHT22;8843;48.838;9.324;2022-10-31T12:29:56;16.60;88.30
17452;DHT22;8843;48.838;9.324;2022-10-31T12:32:35;16.60;88.90
17452;DHT22;8843;48.838;9.324;2022-10-31T12:35:24;16.70;88.80
17452;DHT22;8843;48.838;9.324;2022-10-31T12:38:08;16.80;89.80
17452;DHT22;8843;48.838;9.324;2022-10-31T12:40:52;16.90;88.60
17452;DHT22;8843;48.838;9.324;2022-10-31T12:43:34;16.90;88.50
17452;DHT22;8843;48.838;9.324;2022-10-31T12:46:02;17.00;88.40
17452;DHT22;8843;48.838;9.324;2022-10-31T12:49:07;17.00;87.50
17452;DHT22;8843;48.838;9.324;2022-10-31T12:51:43;17.00;87.90
17452;DHT22;8843;48.838;9.324;2022-10-31T12:54:29;17.00;87.60
17452;DHT22;8843;48.838;9.324;2022-10-31T12:57:04;17.00;88.00
17452;DHT22;8843;48.838;9.324;2022-10-31T12:59:36;17.00;87.40
17452;DHT22;8843;48.838;9.324;2022-10-31T13:02:13;17.00;87.90
17452;DHT22;8843;48.838;9.324;2022-10-31T13:04:46;16.90;87.80
17452;DHT22;8843;48.838;9.324;2022-10-31T13:07:16;16.90;87.70
17452;DHT22;8843;48.838;9.324;2022-10-31T13:09:52;16.90;87.50
17452;DHT22;8843;48.838;9.324;2022-10-31T13:12:22;16.80;87.20
17452;DHT22;8843;48.838;9.324;2022-10-31T13:14:52;16.80;87.60
17452;DHT22;8843;48.838;9.324;2022-10-31T13:17:26;16.80;87.20
17452;DHT22;8843;48.838;9.324;2022-10-31T13:20:02;16.80;87.40
17452;DHT22;8843;48.838;9.324;2022-10-31T13:22:32;16.70;87.90
17452;DHT22;8843;48.838;9.324;2022-10-31T13:25:10;16.70;88.20
17452;DHT22;8843;48.838;9.324;2022-10-31T13:27:45;16.80;88.90
17452;DHT22;8843;48.838;9.324;2022-10-31T13:30:16;16.70;88.10
17452;DHT22;8843;48.838;9.324;2022-10-31T13:32:47;16.70;88.10
17452;DHT22;8843;48.838;9.324;2022-10-31T13:35:20;16.60;88.10
17452;DHT22;8843;48.838;9.324;2022-10-31T13:37:54;16.70;88.40
17452;DHT22;8843;48.838;9.324;2022-10-31T13:40:34;16.70;88.60
17452;DHT22;8843;48.838;9.324;2022-10-31T13:43:07;16.70;88.60
17452;DHT22;8843;48.838;9.324;2022-10-31T13:45:46;16.60;88.20
17452;DHT22;8843;48.838;9.324;2022-10-31T13:48:29;16.60;88.50
17452;DHT22;8843;48.838;9.324;2022-10-31T13:51:00;16.60;88.90
17452;DHT22;8843;48.838;9.324;2022-10-31T13:53:40;16.60;89.30
17452;DHT22;8843;48.838;9.324;2022-10-31T13:56:18;16.60;89.50
17452;DHT22;8843;48.838;9.324;2022-10-31T13:59:02;16.60;89.50
17452;DHT22;8843;48.838;9.324;2022-10-31T14:01:30;16.60;89.70
17452;DHT22;8843;48.838;9.324;2022-10-31T14:04:01;16.70;89.70
17452;DHT22;8843;48.838;9.324;2022-10-31T14:06:38;16.70;89.60
17452;DHT22;8843;48.838;9.324;2022-10-31T14:09:20;16.80;89.50
17452;DHT22;8843;48.838;9.324;2022-10-31T14:11:50;16.80;89.70
17452;DHT22;8843;48.838;9.324;2022-10-31T14:14:18;16.70;89.30
17452;DHT22;8843;48.838;9.324;2022-10-31T14:16:46;16.70;89.30
17452;DHT22;8843;48.838;9.324;2022-10-31T14:19:21;16.70;89.00
17452;DHT22;8843;48.838;9.324;2022-10-31T14:21:49;16.70;89.20
17452;DHT22;8843;48.838;9.324;2022-10-31T14:24:31;16.70;89.30
17452;DHT22;8843;48.838;9.324;2022-10-31T14:27:01;16.70;89.30
17452;DHT22;8843;48.838;9.324;2022-10-31T14:29:28;16.70;89.50
17452;DHT22;8843;48.838;9.324;2022-10-31T14:32:03;16.80;89.90
17452;DHT22;8843;48.838;9.324;2022-10-31T14:34:38;16.80;89.70
17452;DHT22;8843;48.838;9.324;2022-10-31T14:37:32;16.70;89.90
17452;DHT22;8843;48.838;9.324;2022-10-31T14:40:17;16.70;89.70
17452;DHT22;8843;48.838;9.324;2022-10-31T14:43:00;16.70;90.30
17452;DHT22;8843;48.838;9.324;2022-10-31T14:45:36;16.70;90.00
17452;DHT22;8843;48.838;9.324;2022-10-31T14:48:17;16.80;90.10
17452;DHT22;8843;48.838;9.324;2022-10-31T14:50:50;16.80;90.10
17452;DHT22;8843;48.838;9.324;2022-10-31T14:53:22;16.70;90.50
17452;DHT22;8843;48.838;9.324;2022-10-31T14:55:52;16.70;90.00
17452;DHT22;8843;48.838;9.324;2022-10-31T14:58:23;16.70;90.20
17452;DHT22;8843;48.838;9.324;2022-10-31T15:00:55;16.60;90.10
17452;DHT22;8843;48.838;9.324;2022-10-31T15:03:27;16.70;90.10
17452;DHT22;8843;48.838;9.324;2022-10-31T15:05:56;16.60;90.00
17452;DHT22;8843;48.838;9.324;2022-10-31T15:08:34;16.60;90.00
17452;DHT22;8843;48.838;9.324;2022-10-31T15:11:12;16.60;90.10
17452;DHT22;8843;48.838;9.324;2022-10-31T15:13:46;16.50;90.10
17452;DHT22;8843;48.838;9.324;2022-10-31T15:18:53;16.50;90.20
17452;DHT22;8843;48.838;9.324;2022-10-31T15:21:23;16.50;90.20
17452;DHT22;8843;48.838;9.324;2022-10-31T15:23:52;16.50;90.20
17452;DHT22;8843;48.838;9.324;2022-10-31T15:26:21;16.50;90.20
17452;DHT22;8843;48.838;9.324;2022-10-31T15:28:59;16.50;90.20
17452;DHT22;8843;48.838;9.324;2022-10-31T15:31:27;16.40;90.20
17452;DHT22;8843;48.838;9.324;2022-10-31T15:33:58;16.40;90.10
17452;DHT22;8843;48.838;9.324;2022-10-31T15:36:26;16.40;90.20
17452;DHT22;8843;48.838;9.324;2022-10-31T15:38:55;16.40;90.20
17452;DHT22;8843;48.838;9.324;2022-10-31T15:41:27;16.30;90.20
17452;DHT22;8843;48.838;9.324;2022-10-31T15:43:59;16.30;90.20
17452;DHT22;8843;48.838;9.324;2022-10-31T15:46:27;16.30;90.10
17452;DHT22;8843;48.838;9.324;2022-10-31T15:48:54;16.30;90.10
17452;DHT22;8843;48.838;9.324;2022-10-31T15:51:26;16.30;90.50
17452;DHT22;8843;48.838;9.324;2022-10-31T15:53:55;16.20;90.00
17452;DHT22;8843;48.838;9.324;2022-10-31T15:56:24;16.30;90.00
17452;DHT22;8843;48.838;9.324;2022-10-31T15:58:53;16.20;90.00
17452;DHT22;8843;48.838;9.324;2022-10-31T16:01:23;16.20;90.00
17452;DHT22;8843;48.838;9.324;2022-10-31T16:04:03;16.20;89.90
17452;DHT22;8843;48.838;9.324;2022-10-31T16:06:31;16.20;89.90
17452;DHT22;8843;48.838;9.324;2022-10-31T16:08:58;16.10;89.50
17452;DHT22;8843;48.838;9.324;2022-10-31T16:11:32;16.10;89.50
17452;DHT22;8843;48.838;9.324;2022-10-31T16:14:04;16.10;89.40
17452;DHT22;8843;48.838;9.324;2022-10-31T16:16:39;16.10;90.00